createdAt,value
2019-04-04T00:02:24.508Z,27.77
2019-04-04T00:04:53.003Z,27.80
2019-04-04T00:07:20.996Z,27.07
2019-04-04T00:09:48.998Z,25.50
2019-04-04T00:12:17.095Z,22.20
2019-04-04T00:14:45.184Z,20.30
2019-04-04T00:17:13.246Z,18.83
2019-04-04T00:19:41.321Z,21.00
2019-04-04T00:22:09.392Z,20.90
2019-04-04T00:24:39.366Z,19.33
2019-04-04T00:27:07.600Z,17.97
2019-04-04T00:29:35.722Z,17.37
2019-04-04T00:32:03.728Z,17.17
2019-04-04T00:34:31.727Z,18.13
2019-04-04T00:36:59.819Z,17.10
2019-04-04T00:39:27.919Z,16.57
2019-04-04T00:45:17.694Z,13.90
2019-04-04T00:47:45.723Z,14.03
2019-04-04T00:50:14.293Z,14.23
2019-04-04T00:52:42.331Z,13.33
2019-04-04T00:55:10.399Z,14.30
2019-04-04T00:57:38.450Z,13.87
2019-04-04T01:00:07.166Z,14.23
2019-04-04T01:02:35.212Z,13.10
2019-04-04T01:05:04.478Z,13.60
2019-04-04T01:07:33.939Z,13.47
2019-04-04T01:10:02.533Z,13.20
2019-04-04T01:12:30.649Z,13.33
2019-04-04T01:15:00.122Z,12.47
2019-04-04T01:17:28.521Z,11.63
2019-04-04T01:19:56.574Z,13.07
2019-04-04T01:22:25.004Z,13.13
2019-04-04T01:24:53.706Z,12.23
2019-04-04T01:27:21.816Z,12.70
2019-04-04T01:29:49.842Z,12.50
2019-04-04T01:32:17.930Z,12.20
2019-04-04T01:34:46.151Z,11.70
2019-04-04T01:37:14.195Z,11.13
2019-04-04T01:39:42.236Z,11.30
2019-04-04T01:42:10.324Z,11.00
2019-04-04T01:44:40.089Z,10.30
2019-04-04T01:47:08.018Z,11.00
2019-04-04T01:49:36.079Z,11.93
2019-04-04T01:52:04.115Z,11.53
2019-04-04T01:54:32.804Z,11.27
2019-04-04T01:57:00.987Z,11.07
2019-04-04T01:59:31.483Z,10.93
2019-04-04T02:01:59.598Z,10.57
2019-04-04T02:04:27.658Z,10.40
2019-04-04T02:06:58.813Z,9.27
2019-04-04T02:09:26.066Z,10.67
2019-04-04T02:11:54.117Z,10.37
2019-04-04T02:14:22.225Z,10.47
2019-04-04T02:16:51.593Z,10.70
2019-04-04T02:19:19.800Z,10.37
2019-04-04T02:21:47.822Z,10.53
2019-04-04T02:24:15.860Z,10.87
2019-04-04T02:26:43.917Z,10.83
2019-04-04T02:29:12.048Z,10.47
2019-04-04T02:31:45.094Z,11.03
2019-04-04T02:34:13.166Z,12.00
2019-04-04T02:36:41.215Z,11.83
2019-04-04T02:39:11.097Z,12.17
2019-04-04T02:41:39.118Z,11.30
2019-04-04T02:44:07.523Z,11.73
2019-04-04T02:46:35.556Z,11.83
2019-04-04T02:49:03.601Z,11.13
2019-04-04T02:51:31.652Z,12.03
2019-04-04T02:53:59.758Z,12.03
2019-04-04T02:56:27.796Z,12.37
2019-04-04T02:58:55.851Z,11.13
2019-04-04T03:01:23.924Z,11.43
2019-04-04T03:03:52.111Z,11.30
2019-04-04T03:06:23.870Z,12.37
2019-04-04T03:08:50.087Z,11.37
2019-04-04T03:11:21.187Z,12.17
2019-04-04T03:13:48.094Z,10.80
2019-04-04T03:16:16.119Z,12.43
2019-04-04T03:18:44.234Z,12.97
2019-04-04T03:21:12.240Z,12.50
2019-04-04T03:23:40.338Z,12.80
2019-04-04T03:26:08.463Z,12.80
2019-04-04T03:28:36.557Z,13.27
2019-04-04T03:31:04.640Z,11.60
2019-04-04T03:33:32.968Z,12.27
2019-04-04T03:36:01.344Z,12.37
2019-04-04T03:38:29.492Z,13.13
2019-04-04T03:40:58.683Z,13.97
2019-04-04T03:43:26.878Z,13.10
2019-04-04T03:45:54.927Z,12.43
2019-04-04T03:48:23.003Z,14.67
2019-04-04T03:50:51.423Z,12.93
2019-04-04T03:53:20.808Z,14.10
2019-04-04T03:55:48.851Z,13.77
2019-04-04T03:58:17.484Z,15.23
2019-04-04T04:00:45.532Z,13.73
2019-04-04T04:03:13.561Z,14.37
2019-04-04T04:05:42.632Z,14.53
2019-04-04T04:08:10.676Z,14.63
2019-04-04T04:10:38.750Z,15.73
2019-04-04T04:13:07.947Z,15.07
2019-04-04T04:15:36.062Z,15.57
2019-04-04T04:18:04.129Z,15.50
2019-04-04T04:20:36.270Z,15.77
2019-04-04T04:23:01.852Z,15.40
2019-04-04T04:25:29.905Z,16.50
2019-04-04T04:27:58.039Z,16.83
2019-04-04T04:30:26.124Z,16.07
2019-04-04T04:32:57.132Z,15.23
2019-04-04T04:35:23.897Z,16.93
2019-04-04T04:37:53.321Z,15.90
2019-04-04T04:40:21.667Z,15.97
2019-04-04T04:42:49.903Z,15.17
2019-04-04T04:45:17.908Z,15.67
2019-04-04T04:47:45.953Z,15.23
2019-04-04T04:50:13.982Z,16.27
2019-04-04T04:52:42.048Z,16.00
2019-04-04T04:55:11.978Z,16.27
2019-04-04T04:57:49.283Z,16.63
2019-04-04T05:00:17.406Z,16.13
2019-04-04T05:02:45.515Z,16.60
2019-04-04T05:05:13.654Z,16.07
2019-04-04T05:07:41.684Z,16.27
2019-04-04T05:10:22.142Z,16.87
2019-04-04T05:12:52.706Z,17.43
2019-04-04T05:15:22.142Z,18.73
2019-04-04T05:17:50.206Z,19.10
2019-04-04T05:20:18.249Z,17.47
2019-04-04T05:22:46.365Z,18.73
2019-04-04T05:25:14.390Z,19.40
2019-04-04T05:30:52.425Z,19.57
2019-04-04T05:33:22.816Z,19.20
2019-04-04T05:35:50.208Z,20.87
2019-04-04T05:38:18.470Z,18.63
2019-04-04T05:40:46.531Z,19.50
2019-04-04T05:43:16.978Z,21.60
2019-04-04T05:45:45.957Z,19.77
2019-04-04T05:48:14.099Z,19.57
2019-04-04T05:50:43.652Z,19.77
2019-04-04T05:53:14.959Z,20.10
2019-04-04T05:55:43.011Z,20.43
2019-04-04T05:58:11.032Z,18.77
2019-04-04T06:00:40.798Z,17.23
2019-04-04T06:03:08.846Z,19.23
2019-04-04T06:05:38.046Z,18.50
2019-04-04T06:08:08.185Z,18.50
2019-04-04T06:10:35.803Z,19.03
2019-04-04T06:13:03.899Z,20.60
2019-04-04T06:18:42.972Z,18.27
2019-04-04T06:24:21.342Z,19.40
2019-04-04T06:26:49.502Z,18.23
2019-04-04T06:29:19.377Z,19.17
2019-04-04T06:31:47.434Z,18.93
2019-04-04T06:34:15.569Z,19.40
2019-04-04T06:36:43.687Z,18.63
2019-04-04T06:39:11.736Z,19.30
2019-04-04T06:41:39.826Z,18.00
2019-04-04T06:44:07.894Z,20.07
2019-04-04T06:49:45.864Z,20.40
2019-04-04T06:52:18.128Z,20.33
2019-04-04T06:54:44.079Z,19.23
2019-04-04T06:57:12.155Z,19.10
2019-04-04T06:59:43.013Z,19.33
2019-04-04T07:02:10.428Z,18.03
2019-04-04T07:04:45.202Z,18.90
2019-04-04T07:07:13.426Z,18.67
2019-04-04T07:09:41.472Z,18.70
2019-04-04T07:12:20.794Z,17.43
2019-04-04T07:14:45.573Z,18.17
2019-04-04T07:17:09.602Z,18.20
2019-04-04T07:19:37.734Z,18.23
2019-04-04T07:22:05.852Z,17.30
2019-04-04T07:24:33.982Z,18.47
2019-04-04T07:27:02.027Z,18.43
2019-04-04T07:29:30.145Z,17.70
2019-04-04T07:31:58.232Z,17.30
2019-04-04T07:34:26.629Z,17.47
2019-04-04T07:36:54.663Z,17.43
2019-04-04T07:39:22.770Z,17.20
2019-04-04T07:41:51.055Z,17.20
2019-04-04T07:44:19.151Z,17.43
2019-04-04T07:46:47.360Z,16.70
2019-04-04T07:49:17.413Z,15.37
2019-04-04T07:51:45.701Z,16.30
2019-04-04T07:54:13.763Z,15.13
2019-04-04T07:56:46.856Z,14.87
2019-04-04T07:59:11.754Z,14.47
2019-04-04T08:01:50.693Z,12.73
2019-04-04T08:04:10.516Z,12.97
2019-04-04T08:06:38.712Z,13.80
2019-04-04T08:09:07.136Z,12.87
2019-04-04T08:11:35.287Z,13.77
2019-04-04T08:14:03.351Z,13.57
2019-04-04T08:16:31.532Z,12.73
2019-04-04T08:18:59.703Z,13.87
2019-04-04T08:21:28.926Z,13.10
2019-04-04T08:23:57.141Z,13.37
2019-04-04T08:26:25.217Z,14.77
2019-04-04T08:28:53.495Z,14.07
2019-04-04T08:31:21.586Z,14.53
2019-04-04T08:33:49.684Z,14.67
2019-04-04T08:36:17.839Z,14.00
2019-04-04T08:38:45.868Z,14.93
2019-04-04T08:41:13.951Z,15.33
2019-04-04T08:43:42.043Z,15.37
2019-04-04T08:46:10.093Z,14.90
2019-04-04T08:48:38.279Z,15.93
2019-04-04T08:51:06.449Z,14.70
2019-04-04T08:53:40.236Z,15.57
2019-04-04T08:56:04.763Z,16.40
2019-04-04T08:58:32.837Z,16.07
2019-04-04T09:01:01.102Z,15.77
2019-04-04T09:03:30.321Z,14.57
2019-04-04T09:05:58.449Z,15.33
2019-04-04T09:08:26.510Z,12.40
2019-04-04T09:10:54.590Z,13.57
2019-04-04T09:13:22.678Z,13.50
2019-04-04T09:15:50.936Z,13.57
2019-04-04T09:18:19.008Z,13.43
2019-04-04T09:20:47.087Z,13.50
2019-04-04T09:23:15.130Z,14.47
2019-04-04T09:25:43.472Z,12.97
2019-04-04T09:28:11.537Z,13.27
2019-04-04T09:30:39.753Z,14.40
2019-04-04T09:33:07.852Z,14.60
2019-04-04T09:35:36.055Z,14.83
2019-04-04T09:38:04.375Z,13.17
2019-04-04T09:40:32.469Z,12.90
2019-04-04T09:43:00.515Z,13.10
2019-04-04T09:45:31.585Z,13.17
2019-04-04T09:47:59.629Z,14.63
2019-04-04T09:50:27.634Z,14.10
2019-04-04T09:52:55.805Z,13.63
2019-04-04T09:55:23.849Z,14.60
2019-04-04T09:57:52.396Z,15.17
2019-04-04T10:00:22.047Z,14.20
2019-04-04T10:02:50.126Z,14.43
2019-04-04T10:05:18.232Z,12.77
2019-04-04T10:07:46.266Z,14.37
2019-04-04T10:10:15.534Z,14.93
2019-04-04T10:12:43.676Z,14.70
2019-04-04T10:15:11.962Z,14.27
2019-04-04T10:17:40.651Z,13.20
2019-04-04T10:20:08.953Z,13.00
2019-04-04T10:22:37.026Z,13.30
2019-04-04T10:25:05.238Z,14.20
2019-04-04T10:27:33.324Z,13.50
2019-04-04T10:30:01.436Z,13.23
2019-04-04T10:32:29.505Z,13.37
2019-04-04T10:34:57.550Z,13.03
2019-04-04T10:37:25.774Z,12.80
2019-04-04T10:39:53.922Z,12.13
2019-04-04T10:42:22.408Z,12.80
2019-04-04T10:44:50.531Z,11.90
2019-04-04T10:47:18.612Z,12.70
2019-04-04T10:49:46.807Z,11.87
2019-04-04T10:52:14.885Z,10.97
2019-04-04T10:54:42.930Z,12.37
2019-04-04T10:57:11.359Z,12.47
2019-04-04T10:59:41.206Z,11.70
2019-04-04T11:02:09.366Z,13.00
2019-04-04T11:04:37.432Z,11.77
2019-04-04T11:07:05.520Z,13.53
2019-04-04T11:09:41.749Z,12.97
2019-04-04T11:12:03.338Z,13.80
2019-04-04T11:14:31.516Z,12.63
2019-04-04T11:17:02.571Z,12.97
2019-04-04T11:22:00.504Z,13.63
2019-04-04T11:23:46.575Z,13.90
2019-04-04T11:24:28.549Z,14.23
2019-04-04T11:26:56.681Z,13.47
2019-04-04T11:29:24.902Z,14.97
2019-04-04T11:31:53.065Z,13.90
2019-04-04T11:34:21.241Z,13.90
2019-04-04T11:36:49.298Z,14.17
2019-04-04T11:39:17.368Z,14.60
2019-04-04T11:41:45.848Z,14.17
2019-04-04T11:44:13.933Z,14.10
2019-04-04T11:46:42.020Z,15.00
2019-04-04T11:49:10.118Z,15.10
2019-04-04T11:51:38.179Z,14.67
2019-04-04T11:54:06.297Z,15.23
2019-04-04T11:56:35.440Z,15.20
2019-04-04T11:59:03.725Z,16.77
2019-04-04T12:01:34.612Z,16.40
2019-04-04T12:04:02.371Z,17.37
2019-04-04T12:06:30.475Z,16.93
2019-04-04T12:08:58.807Z,15.73
2019-04-04T12:11:29.147Z,15.83
2019-04-04T12:13:58.960Z,15.23
2019-04-04T12:16:27.114Z,15.67
2019-04-04T12:18:55.148Z,15.83
2019-04-04T12:21:23.340Z,15.77
2019-04-04T12:23:51.681Z,15.93
2019-04-04T12:26:19.771Z,17.77
2019-04-04T12:28:47.891Z,17.07
2019-04-04T12:31:16.163Z,17.13
2019-04-04T12:33:44.574Z,16.30
2019-04-04T12:36:24.033Z,16.13
2019-04-04T12:38:43.429Z,16.53
2019-04-04T12:41:11.890Z,16.10
2019-04-04T12:43:39.977Z,15.83
2019-04-04T12:46:08.028Z,13.77
2019-04-04T12:48:36.125Z,14.70
2019-04-04T12:51:04.198Z,14.07
2019-04-04T12:53:32.842Z,15.73
2019-04-04T12:56:01.089Z,15.23
2019-04-04T12:58:29.199Z,15.53
2019-04-04T13:00:57.315Z,15.73
2019-04-04T13:03:25.719Z,16.57
2019-04-04T13:05:54.002Z,15.47
2019-04-04T13:08:22.414Z,15.33
2019-04-04T13:10:50.624Z,15.73
2019-04-04T13:13:18.665Z,15.57
2019-04-04T13:15:46.768Z,16.13
2019-04-04T13:18:14.829Z,17.47
2019-04-04T13:20:42.870Z,16.73
2019-04-04T13:23:10.954Z,16.23
2019-04-04T13:25:39.051Z,15.93
2019-04-04T13:28:07.121Z,16.60
2019-04-04T13:30:35.189Z,16.50
2019-04-04T13:33:03.224Z,17.40
2019-04-04T13:35:31.328Z,14.63
2019-04-04T13:37:59.405Z,15.57
2019-04-04T13:40:27.488Z,15.47
2019-04-04T13:42:55.641Z,17.83
2019-04-04T13:45:25.402Z,15.37
2019-04-04T13:47:53.686Z,15.73
2019-04-04T13:50:21.750Z,17.37
2019-04-04T13:52:50.270Z,15.47
2019-04-04T13:55:18.378Z,16.10
2019-04-04T13:57:47.609Z,16.67
2019-04-04T14:00:17.667Z,15.40
2019-04-04T14:02:45.805Z,17.30
2019-04-04T14:05:14.666Z,17.10
2019-04-04T14:07:43.860Z,17.37
2019-04-04T14:10:12.438Z,16.20
2019-04-04T14:12:41.779Z,16.83
2019-04-04T14:15:10.323Z,17.87
2019-04-04T14:17:38.461Z,16.40
2019-04-04T14:20:07.531Z,16.97
2019-04-04T14:22:35.774Z,17.13
2019-04-04T14:25:05.194Z,16.63
2019-04-04T14:27:33.331Z,16.87
2019-04-04T14:30:02.460Z,17.30
2019-04-04T14:32:30.597Z,18.27
2019-04-04T14:34:58.637Z,17.23
2019-04-04T14:37:27.907Z,18.80
2019-04-04T14:39:57.092Z,18.97
2019-04-04T14:42:25.239Z,18.60
2019-04-04T14:44:53.349Z,19.53
2019-04-04T14:47:42.453Z,18.63
2019-04-04T14:50:10.672Z,19.27
2019-04-04T14:52:39.561Z,21.90
2019-04-04T14:55:07.990Z,20.63
2019-04-04T14:57:36.118Z,19.33
2019-04-04T15:00:05.572Z,20.63
2019-04-04T15:02:33.651Z,21.17
2019-04-04T15:05:01.719Z,20.63
2019-04-04T15:07:29.773Z,18.80
2019-04-04T15:09:57.862Z,17.13
2019-04-04T15:12:25.968Z,18.17
2019-04-04T15:18:02.458Z,17.93
2019-04-04T15:20:30.565Z,20.47
2019-04-04T15:22:58.712Z,19.77
2019-04-04T15:25:26.804Z,19.53
2019-04-04T15:27:54.840Z,19.40
2019-04-04T15:30:22.966Z,18.97
2019-04-04T15:32:51.342Z,20.50
2019-04-04T15:35:19.416Z,20.37
2019-04-04T15:37:47.687Z,20.30
2019-04-04T15:40:16.076Z,21.00
2019-04-04T15:42:46.077Z,20.90
2019-04-04T15:45:14.342Z,21.27
2019-04-04T15:47:42.366Z,20.73
2019-04-04T15:50:10.493Z,21.27
2019-04-04T15:52:38.596Z,21.67
2019-04-04T15:55:06.841Z,21.07
2019-04-04T15:57:36.138Z,23.57
2019-04-04T16:00:05.000Z,23.00
2019-04-04T16:02:33.142Z,22.63
2019-04-04T16:05:01.277Z,22.17
2019-04-04T16:07:29.344Z,20.93
2019-04-04T16:09:57.495Z,24.43
2019-04-04T16:12:25.605Z,21.90
2019-04-04T16:14:53.635Z,21.10
2019-04-04T16:17:21.743Z,19.93
2019-04-04T16:19:49.837Z,21.27
2019-04-04T16:22:17.945Z,20.87
2019-04-04T16:24:46.196Z,20.33
2019-04-04T16:27:14.526Z,20.40
2019-04-04T16:29:44.139Z,20.60
2019-04-04T16:32:12.537Z,20.80
2019-04-04T16:34:40.585Z,20.07
2019-04-04T16:37:08.796Z,20.63
2019-04-04T16:39:37.269Z,20.87
2019-04-04T16:42:06.078Z,21.20
2019-04-04T16:44:38.221Z,21.10
2019-04-04T16:47:06.277Z,21.00
2019-04-04T16:49:38.067Z,22.93
2019-04-04T16:52:07.118Z,23.40
2019-04-04T16:54:34.803Z,23.47
2019-04-04T16:57:02.889Z,21.83
2019-04-04T16:59:30.970Z,24.23
2019-04-04T17:01:59.166Z,22.83
2019-04-04T17:04:27.235Z,21.90
2019-04-04T17:06:55.366Z,21.77
2019-04-04T17:09:23.901Z,20.80
2019-04-04T17:11:51.942Z,18.80
2019-04-04T17:14:20.388Z,17.93
2019-04-04T17:16:48.522Z,19.67
2019-04-04T17:19:16.703Z,16.53
2019-04-04T17:21:44.919Z,14.60
2019-04-04T17:24:13.152Z,15.63
2019-04-04T17:26:41.561Z,14.23
2019-04-04T17:29:09.772Z,17.17
2019-04-04T17:31:38.176Z,19.70
2019-04-04T17:34:06.479Z,15.53
2019-04-04T17:36:35.208Z,17.40
2019-04-04T17:39:06.350Z,15.50
2019-04-04T17:41:35.090Z,13.83
2019-04-04T17:44:03.319Z,14.30
2019-04-04T17:46:32.067Z,14.00
2019-04-04T17:49:01.036Z,14.77
2019-04-04T17:51:29.575Z,14.00
2019-04-04T17:53:58.458Z,13.53
2019-04-04T17:56:26.467Z,14.10
2019-04-04T17:58:54.542Z,15.07
2019-04-04T18:01:22.607Z,13.57
2019-04-04T18:03:50.909Z,13.40
2019-04-04T18:09:32.139Z,14.43
2019-04-04T18:12:40.216Z,13.00
2019-04-04T18:15:00.790Z,13.17
2019-04-04T18:17:28.907Z,20.43
2019-04-04T18:19:56.965Z,17.80
2019-04-04T18:22:25.085Z,12.47
2019-04-04T18:24:53.210Z,16.43
2019-04-04T18:27:21.310Z,22.50
2019-04-04T18:29:49.598Z,15.07
2019-04-04T18:32:17.670Z,17.43
2019-04-04T18:34:46.178Z,12.83
2019-04-04T18:37:14.998Z,12.53
2019-04-04T18:39:43.173Z,12.47
2019-04-04T18:42:11.239Z,14.50
2019-04-04T18:44:39.311Z,13.73
2019-04-04T18:47:07.438Z,12.43
2019-04-04T18:49:35.517Z,12.30
2019-04-04T18:52:03.568Z,11.67
2019-04-04T18:54:32.094Z,11.33
2019-04-04T18:57:00.394Z,12.67
2019-04-04T18:59:28.469Z,14.37
2019-04-04T19:01:56.720Z,13.87
2019-04-04T19:04:24.759Z,13.67
2019-04-04T19:06:53.268Z,12.27
2019-04-04T19:09:21.365Z,11.17
2019-04-04T19:11:49.444Z,13.03
2019-04-04T19:14:19.603Z,12.60
2019-04-04T19:16:48.625Z,13.30
2019-04-04T19:19:16.917Z,12.27
2019-04-04T19:21:45.527Z,13.97
2019-04-04T19:24:13.996Z,14.37
2019-04-04T19:26:42.174Z,14.63
2019-04-04T19:29:10.367Z,14.57
2019-04-04T19:31:38.525Z,13.97
2019-04-04T19:34:06.704Z,13.03
2019-04-04T19:36:34.828Z,13.03
2019-04-04T19:39:02.916Z,13.97
2019-04-04T19:41:31.081Z,12.60
2019-04-04T19:43:59.468Z,14.00
2019-04-04T19:46:37.070Z,13.33
2019-04-04T19:48:57.294Z,15.27
2019-04-04T19:51:25.441Z,14.63
2019-04-04T19:53:53.534Z,14.90
2019-04-04T19:56:21.881Z,13.60
2019-04-04T19:58:49.937Z,15.17
2019-04-04T20:01:18.136Z,15.23
2019-04-04T20:03:46.314Z,16.50
2019-04-04T20:06:14.470Z,17.53
2019-04-04T20:08:42.727Z,16.07
2019-04-04T20:11:10.865Z,15.93
2019-04-04T20:13:38.986Z,16.67
2019-04-04T20:16:07.190Z,16.30
2019-04-04T20:18:35.826Z,17.67
2019-04-04T20:21:03.866Z,17.37
2019-04-04T20:23:31.922Z,17.90
2019-04-04T20:26:00.026Z,16.97
2019-04-04T20:28:28.368Z,17.30
2019-04-04T20:30:56.440Z,17.43
2019-04-04T20:33:24.523Z,17.87
2019-04-04T20:35:52.608Z,18.23
2019-04-04T20:38:21.176Z,18.47
2019-04-04T20:40:49.296Z,17.73
2019-04-04T20:43:17.438Z,18.23
2019-04-04T20:45:46.027Z,17.67
2019-04-04T20:48:14.152Z,18.83
2019-04-04T20:50:43.519Z,19.97
2019-04-04T20:53:11.666Z,19.40
2019-04-04T20:55:39.774Z,19.00
2019-04-04T20:58:07.922Z,21.27
2019-04-04T21:00:35.993Z,19.30
2019-04-04T21:03:04.128Z,20.10
2019-04-04T21:05:32.208Z,19.30
2019-04-04T21:08:00.483Z,20.13
2019-04-04T21:10:28.603Z,21.20
2019-04-04T21:12:56.911Z,20.47
2019-04-04T21:15:25.018Z,20.80
2019-04-04T21:17:53.203Z,21.20
2019-04-04T21:20:21.334Z,21.50
2019-04-04T21:22:49.432Z,21.23
2019-04-04T21:25:19.977Z,21.93
2019-04-04T21:27:48.060Z,22.13
2019-04-04T21:30:16.222Z,21.97
2019-04-04T21:32:45.368Z,21.43
2019-04-04T21:35:13.446Z,22.17
2019-04-04T21:40:51.230Z,22.80
2019-04-04T21:43:19.259Z,21.77
2019-04-04T21:45:47.423Z,22.47
2019-04-04T21:48:15.601Z,23.23
2019-04-04T21:50:43.674Z,23.33
2019-04-04T21:53:13.052Z,23.30
2019-04-04T21:55:41.197Z,24.23
2019-04-04T21:58:09.463Z,24.60
2019-04-04T22:00:44.907Z,24.03
2019-04-04T22:03:12.914Z,23.63
2019-04-04T22:05:41.082Z,24.07
2019-04-04T22:08:09.121Z,24.63
2019-04-04T22:10:37.175Z,25.00
2019-04-04T22:13:06.736Z,23.83
2019-04-04T22:15:34.859Z,23.60
2019-04-04T22:18:03.331Z,23.97
2019-04-04T22:20:31.938Z,23.30
2019-04-04T22:22:59.965Z,23.63
2019-04-04T22:25:28.109Z,23.83
2019-04-04T22:27:56.156Z,23.97
2019-04-04T22:30:24.242Z,24.27
2019-04-04T22:32:52.298Z,24.43
2019-04-04T22:35:20.352Z,22.80
2019-04-04T22:37:48.484Z,22.93
2019-04-04T22:40:16.571Z,20.77
2019-04-04T22:42:45.662Z,21.33
2019-04-04T22:45:13.960Z,21.43
2019-04-04T22:47:42.108Z,20.80
2019-04-04T22:50:11.109Z,22.47
2019-04-04T22:52:39.215Z,22.63
2019-04-04T22:55:07.859Z,22.60
2019-04-04T22:57:35.974Z,23.50
2019-04-04T23:00:04.149Z,23.70
2019-04-04T23:02:32.430Z,25.97
2019-04-04T23:05:00.512Z,25.23
2019-04-04T23:07:28.567Z,25.00
2019-04-04T23:09:56.707Z,26.07
2019-04-04T23:12:24.727Z,27.50
2019-04-04T23:14:52.777Z,27.73
2019-04-04T23:17:21.087Z,28.60
2019-04-04T23:19:49.149Z,30.83
2019-04-04T23:22:17.236Z,30.67
2019-04-04T23:24:45.312Z,33.23
2019-04-04T23:27:13.425Z,31.30
2019-04-04T23:29:42.702Z,32.80
2019-04-04T23:32:10.889Z,32.70
2019-04-04T23:34:38.973Z,34.27
2019-04-04T23:37:07.022Z,35.90
2019-04-04T23:39:35.091Z,35.43
2019-04-04T23:42:03.186Z,36.13
2019-04-04T23:44:31.276Z,35.87
2019-04-04T23:46:59.320Z,36.77
2019-04-04T23:49:27.380Z,37.77
2019-04-04T23:52:14.780Z,37.87
2019-04-04T23:54:42.834Z,37.93
2019-04-04T23:57:10.898Z,39.90
2019-04-04T23:59:38.979Z,39.67
